Ride Results

Sofala Gold (13-11-2005)
Ride distance: 80.0 km

Outcomes - Sofala Gold (13-11-2005)
Division No. of Entries Retired / DNE Completed Withdrawn Ineligible V/O Percentage Completed
HW 6 - 5 - - 1 83.33%
MW 23 - 17 3 - 3 73.91%
LW 12 - 9 - - 3 75.00%
JN 3 - 3 - - - 100.00%
Totals 44 - 34 3 - 7 77.27%
Results - Sofala Gold (13-11-2005)
No. Rider Horse Place Time Leg Speeds Total
Km/Hr
H/R bpm
Heavyweight
141 Leanne Le Claire Arika Baie 1 5:23:00 15.7, 13.6 14.86 36, 46, 43 (Avg:44)
142 Kieron Power Alfie Langer 2 6:14:00 14.3, 10.9 12.83 30, 48, 52 (Avg:50)
146 Neil Clarkson Espirit Sherwood 3 6:38:00 13.3, 10.4 12.06 31, 40, 48 (Avg:44)
145 Clinton Cole Rustan Ramarah 4 7:40:00 10.4, 10.4 10.43 38, 48, 44 (Avg:46)
144 Allan Caslick Nandawar Silver Shadow 5 9:02:00 9.3, 8.1 8.86 40, 50, 60 (Avg:55)
143 Ken Halverson Coco Lame L2 0:00:00 13.9, 6.8 - 37, 54, 56 (Avg:55)
Middleweight
23 Mark Harvey Judstan Sharwayn 1 4:29:00 18.1, 17.3 17.84 44, 54, 57 (Avg:55)
22 Jennifer Gilbertson Aussie Oy 2 5:09:00 16.2, 14.5 15.53 39, 52, 55 (Avg:53)
8 Brad Randall Ralvon Memory 3 5:49:00 13.2, 14.6 13.75 33, 44, 52 (Avg:48)
19 Alan Lindsay Kintamani Nidir 4 5:55:00 14.2, 12.4 13.52 32, 50, 52 (Avg:51)
18 Mary Symons Ralvon Vim 4 5:55:00 14.4, 12.2 13.52 38, 44, 42 (Avg:43)
11 Carol Major Major Luke 6 6:04:00 17.4, 9.3 13.19 36, 44, 50 (Avg:47)
12 Jas Crafter Sienna Shikahn 7 6:18:00 14.0, 10.9 12.70 40, 52, 55 (Avg:53)
3 Hazel McCort Zelmarah Shaania 8 6:38:00 13.0, 10.7 12.06 35, 50, 52 (Avg:51)
7 Daphne Phillips My Georgy Girl 9 6:56:00 12.2, 10.5 11.54 31, 40, 56 (Avg:48)
20 Erica Allan Ebony 10 6:57:00 12.9, 9.6 11.51 38, 48, 52 (Avg:50)
5 Sonya Ruprecht Summerwood Naivasha 11 7:08:00 12.3, 9.6 11.21 31, 42, 44 (Avg:43)
10 Sandi Brown Sabeik 12 7:22:00 11.6, 9.7 10.86 36, 44, 48 (Avg:46)
9 Allana Rempel Claremont Park Breanne 12 7:22:00 11.6, 9.7 10.86 31, 36, 48 (Avg:42)
17 Ben Caslick A'Landell Intent 14 7:44:00 10.4, 10.1 10.34 48, 48, 52 (Avg:50)
16 Susan Luthy Eljannah Majid 15 8:17:00 10.4, 8.5 9.66 32, 38, 48 (Avg:43)
21 Tracy Haack Sinbad 16 8:18:00 10.7, 8.1 9.64 36, 44, 44 (Avg:44)
4 Claudia Reid River Oak Axpression 17 9:02:00 9.3, 8.1 8.86 48, 40, 44 (Avg:42)
14 Brodie Ashman Macquarie Park Sedition Lame L2 0:00:00 9.4, 7.5 - 44, 48, 48 (Avg:48)
6 Allison Knihinicki Tuldar Desert Falcon Lame L1 0:00:00 9.3 - 39, 40 (Avg:40)
15 Susan Pritchard A'Landell Majestic Widthdrawn L1 0:00:00 - - 42, 40 (Avg:40)
1 Duncan Satchell Alhambra Mirage Widthdrawn L1 0:00:00 - - 36, 44 (Avg:44)
13 Kim Boyland Regal Crusader Widthdrawn P/R 0:00:00 - - 38
2 George Yule Horse Rescue Carly Lame P/R 0:00:00 - - 39
Lightweight
103 Neroli Mitchell- Cooper Bilbo 1 (BC) 4:10:00 18.5, 20.4 19.20 32, 42, 42 (Avg:42)
105 Lee Duff Aloha Ambassador 2 4:50:00 17.8, 14.7 16.55 36, 36, 51 (Avg:43)
101 Nicole Dookwah Taliah 3 6:13:00 13.3, 12.0 12.87 40, 41, 48 (Avg:44)
109 Dianne Luker Anabriar Khaboul 4 6:36:00 13.1, 10.7 12.12 36, 44, 44 (Avg:44)
104 Robin Gossip Sudan 5 7:48:00 10.8, 9.4 10.26 33, 40, 44 (Avg:42)
111 Sue Todd PPP Kool Pashin 5 7:48:00 10.8, 9.4 10.26 44, 52, 52 (Avg:52)
106 Kerry Reveley Rathowen On Parade 7 7:52:00 10.0, 10.4 10.17 32, 40, 52 (Avg:46)
108 Shan Symons Hazeldean Falaan 8 9:02:00 9.3, 8.1 8.86 36, 44, 48 (Avg:46)
107 Lyndell McGowan Alandell Palette 9 9:15:00 9.4, 7.5 8.65 33, 40, 40 (Avg:40)
110 Joanne Crittenden Timbertop Tarrah Heart Rate L2 0:00:00 10.4, 10.2 - 36, 50, 70 (Avg:60)
112 Fiona Groth Rowallan Rising Sun Lame L1 0:00:00 10.2 - 36, 47 (Avg:47)
102 Johanna Yule Horse Rescue Yasmin Lame L1 0:00:00 10.3 - 40, 48 (Avg:48)
Junior
121 Rochelle Knihinicki Tuldar Ronnie 1 6:18:00 13.1, 12.0 12.70 40, 48, 50 (Avg:49)
122 Brooke Campbell Carlwood Park Sam 2 6:36:00 13.1, 10.7 12.12 38, 46, 48 (Avg:47)
123 Allix Jones Kayali Faras 3 7:44:00 10.4, 10.1 10.34 44, 48, 52 (Avg:50)